Time;durP1;ratioP1;P1;durP2;ratioP2;P2;SDS_P1;SDS_P2;PMS_P1;PMS_P2;Temp;Humidity;BMP_temperature;BMP_pressure;BME280_temperature;BME280_humidity;BME280_pressure;Samples;Min_cycle;Max_cycle;Signal;HPM_P1;HPM_P2
2021/06/01 00:00:46;;;;;;;30.35;15.18;;;;;;;3.94;69.32;99264.94;2151007;82;21087;-66
2021/06/01 00:03:48;;;;;;;26.12;10.63;;;;;;;3.89;69.46;99261.14;2130818;83;21057;-66
2021/06/01 00:06:49;;;;;;;32.08;13.55;;;;;;;3.80;69.06;99257.05;2151110;83;21125;-66
2021/06/01 00:09:49;;;;;;;31.15;13.43;;;;;;;3.73;69.45;99254.67;2151107;82;21487;-66
2021/06/01 00:12:50;;;;;;;30.12;12.68;;;;;;;3.69;69.82;99252.58;2150995;83;21551;-63
2021/06/01 00:15:50;;;;;;;34.90;13.68;;;;;;;3.68;69.88;99255.22;2150827;83;21004;-62
2021/06/01 00:18:50;;;;;;;33.08;13.22;;;;;;;3.62;69.73;99251.04;2150840;83;21020;-66
2021/06/01 00:21:52;;;;;;;27.62;12.25;;;;;;;3.61;69.75;99254.55;2150722;83;21630;-64
2021/06/01 00:24:52;;;;;;;27.30;11.68;;;;;;;3.59;70.22;99257.61;2150845;82;21008;-65
2021/06/01 00:27:53;;;;;;;26.85;11.28;;;;;;;3.64;70.42;99258.36;2150861;82;21016;-67
2021/06/01 00:30:53;;;;;;;24.52;9.75;;;;;;;3.66;70.20;99257.02;2150863;82;20978;-63
2021/06/01 00:33:54;;;;;;;24.75;8.88;;;;;;;3.50;70.11;99261.75;2151138;82;21028;-66
2021/06/01 00:36:54;;;;;;;25.37;8.83;;;;;;;3.34;70.25;99256.94;2151093;82;21548;-66
2021/06/01 00:39:54;;;;;;;23.42;8.85;;;;;;;3.26;70.11;99261.02;2151101;82;21487;-66
2021/06/01 00:42:55;;;;;;;23.65;9.38;;;;;;;3.22;70.51;99261.11;2150983;82;21488;-68
2021/06/01 00:45:55;;;;;;;24.92;8.98;;;;;;;3.17;70.38;99261.22;2150812;82;21020;-67
2021/06/01 00:48:56;;;;;;;25.95;10.25;;;;;;;3.08;70.44;99262.75;2150749;82;21131;-68
2021/06/01 00:51:56;;;;;;;24.43;9.88;;;;;;;3.03;70.79;99258.11;2150994;82;21024;-67
2021/06/01 00:54:56;;;;;;;27.15;10.28;;;;;;;3.00;70.78;99258.18;2151006;82;21016;-67
2021/06/01 00:57:57;;;;;;;28.70;11.57;;;;;;;2.97;70.82;99255.21;2150810;83;21016;-68
2021/06/01 01:01:15;;;;;;;28.95;11.65;;;;;;;2.99;70.92;99260.36;2150951;82;21012;-67
2021/06/01 01:04:00;;;;;;;26.95;11.57;;;;;;;2.95;70.88;99257.00;2130658;83;21587;-68
2021/06/01 01:07:03;;;;;;;28.27;11.08;;;;;;;2.92;70.83;99262.25;2150710;83;21032;-68
2021/06/01 01:10:03;;;;;;;24.75;9.58;;;;;;;2.88;70.94;99258.87;2130606;83;21591;-68
2021/06/01 01:13:05;;;;;;;28.55;10.38;;;;;;;2.87;71.22;99254.56;2150695;83;21032;-67
2021/06/01 01:16:06;;;;;;;29.35;10.95;;;;;;;2.86;71.18;99258.06;2150855;83;21195;-68
2021/06/01 01:19:06;;;;;;;29.50;12.05;;;;;;;2.86;71.46;99259.78;2150741;83;21004;-68
2021/06/01 01:22:07;;;;;;;22.65;9.18;;;;;;;2.84;71.57;99261.57;2150816;82;21036;-68
2021/06/01 01:25:07;;;;;;;23.57;9.38;;;;;;;2.80;71.79;99259.93;2150945;82;21029;-67
2021/06/01 01:28:10;;;;;;;24.05;9.60;;;;;;;2.69;71.49;99265.36;2149926;82;21060;-67
2021/06/01 01:31:10;;;;;;;25.97;10.25;;;;;;;2.61;71.27;99259.03;2145528;83;21112;-64
2021/06/01 01:34:11;;;;;;;26.87;9.20;;;;;;;2.56;71.28;99261.73;2145286;83;21012;-63
2021/06/01 01:37:11;;;;;;;29.63;11.25;;;;;;;2.53;71.27;99261.80;2145302;83;21028;-63
2021/06/01 01:40:12;;;;;;;34.40;13.93;;;;;;;2.52;71.55;99261.37;2145202;83;21025;-62
2021/06/01 01:43:16;;;;;;;38.05;15.83;;;;;;;2.54;71.59;99257.04;2145481;83;21017;-64
2021/06/01 01:46:29;;;;;;;36.38;15.90;;;;;;;2.54;71.55;99261.34;2119221;83;21112;-65
2021/06/01 01:49:17;;;;;;;32.73;13.80;;;;;;;2.54;71.86;99260.92;2119250;83;21025;-65
2021/06/01 01:52:18;;;;;;;29.70;11.85;;;;;;;2.62;72.07;99256.86;2145433;83;21028;-66
2021/06/01 01:55:19;;;;;;;29.52;11.03;;;;;;;2.53;71.72;99256.63;2145641;83;21036;-63
2021/06/01 01:58:19;;;;;;;30.37;11.40;;;;;;;2.47;71.75;99256.77;2145604;83;21017;-64
2021/06/01 02:01:20;;;;;;;27.73;10.93;;;;;;;2.45;71.73;99251.20;2145657;83;21617;-67
2021/06/01 02:04:20;;;;;;;27.98;10.43;;;;;;;2.41;71.93;99249.10;2145396;83;20998;-64
2021/06/01 02:07:21;;;;;;;27.87;10.98;;;;;;;2.51;72.31;99244.59;2145331;83;21064;-68
2021/06/01 02:10:22;;;;;;;24.23;8.90;;;;;;;2.45;72.17;99248.61;2145408;83;21135;-66
2021/06/01 02:13:27;;;;;;;27.42;9.48;;;;;;;2.18;72.02;99243.10;2119273;83;21112;-67
2021/06/01 02:16:28;;;;;;;23.60;9.35;;;;;;;2.06;71.98;99246.80;2119493;83;21017;-66
2021/06/01 02:19:29;;;;;;;36.75;13.18;;;;;;;2.00;72.09;99246.47;2145608;83;20989;-67
2021/06/01 02:25:32;;;;;;;31.48;12.33;;;;;;;2.13;72.49;99243.20;2119510;83;21056;-67
2021/06/01 02:28:33;;;;;;;29.92;10.63;;;;;;;2.14;72.27;99242.33;2146310;82;21596;-67
2021/06/01 02:31:34;;;;;;;30.35;11.83;;;;;;;2.19;72.75;99239.19;2150857;82;21000;-67
2021/06/01 02:34:34;;;;;;;29.60;12.15;;;;;;;2.20;72.27;99240.90;2150859;82;21004;-67
2021/06/01 02:37:35;;;;;;;28.07;10.75;;;;;;;2.20;72.16;99235.72;2151079;82;21064;-67
2021/06/01 02:40:35;;;;;;;26.60;10.38;;;;;;;2.13;72.11;99239.77;2150969;82;21028;-67
2021/06/01 02:43:36;;;;;;;29.40;10.80;;;;;;;2.12;72.46;99244.08;2150973;82;21012;-66
2021/06/01 02:46:36;;;;;;;29.07;10.48;;;;;;;2.13;72.48;99242.36;2151168;82;21012;-67
2021/06/01 02:49:37;;;;;;;28.45;9.73;;;;;;;2.15;72.60;99235.41;2151104;82;21514;-67
2021/06/01 02:52:37;;;;;;;28.42;7.90;;;;;;;2.15;72.35;99233.66;2151148;82;21502;-67
2021/06/01 02:55:38;;;;;;;27.27;8.48;;;;;;;2.10;72.15;99239.81;2151052;82;21578;-66
2021/06/01 02:58:38;;;;;;;25.17;9.23;;;;;;;2.06;72.35;99242.91;2150773;83;20996;-67
2021/06/01 03:01:39;;;;;;;28.12;9.75;;;;;;;2.06;72.28;99241.16;2150800;82;21011;-67
2021/06/01 03:04:39;;;;;;;25.62;9.30;;;;;;;2.10;72.49;99239.81;2151075;83;21013;-67
2021/06/01 03:07:40;;;;;;;25.82;9.95;;;;;;;2.19;72.78;99246.95;2150906;82;21091;-68
2021/06/01 03:10:40;;;;;;;27.42;10.05;;;;;;;2.32;72.64;99245.42;2151078;82;21004;-67
2021/06/01 03:13:41;;;;;;;28.95;10.70;;;;;;;2.32;72.56;99235.06;2150898;82;21036;-66
2021/06/01 03:16:41;;;;;;;27.20;10.48;;;;;;;2.33;72.65;99240.21;2150964;82;21008;-62
2021/06/01 03:19:42;;;;;;;26.37;10.72;;;;;;;2.35;72.52;99238.87;2150859;82;21515;-65
2021/06/01 03:22:42;;;;;;;25.88;9.70;;;;;;;2.36;72.66;99243.19;2150909;83;21570;-63
2021/06/01 03:25:43;;;;;;;25.70;9.05;;;;;;;2.42;73.02;99233.98;2150925;83;21024;-63
2021/06/01 03:28:44;;;;;;;24.85;10.48;;;;;;;2.48;72.72;99226.53;2149829;82;21029;-63
2021/06/01 03:31:44;;;;;;;26.57;10.70;;;;;;;2.58;72.75;99228.03;2145353;83;21012;-65
2021/06/01 03:34:45;;;;;;;29.35;9.75;;;;;;;2.66;72.89;99220.95;2145542;83;21115;-66
2021/06/01 03:37:45;;;;;;;28.62;11.65;;;;;;;2.77;72.66;99225.88;2145515;83;20981;-65
2021/06/01 03:40:46;;;;;;;27.52;10.23;;;;;;;2.84;72.78;99222.25;2145465;83;21013;-62
2021/06/01 03:43:46;;;;;;;28.90;10.25;;;;;;;2.92;72.92;99223.39;2145700;83;21043;-64
2021/06/01 03:46:47;;;;;;;26.95;10.43;;;;;;;3.00;72.70;99224.03;2145619;83;21531;-65
2021/06/01 03:49:47;;;;;;;26.42;10.30;;;;;;;3.18;72.52;99228.39;2145649;83;21610;-67
2021/06/01 03:52:48;;;;;;;27.42;10.88;;;;;;;3.31;72.28;99221.17;2145648;83;21512;-63
2021/06/01 03:55:48;;;;;;;26.50;9.78;;;;;;;3.41;72.11;99218.28;2145666;83;21526;-65
2021/06/01 03:58:49;;;;;;;27.93;10.28;;;;;;;3.73;72.54;99221.78;2145244;83;21023;-67
2021/06/01 04:01:49;;;;;;;29.32;11.18;;;;;;;3.98;72.23;99220.67;2145226;83;21016;-67
2021/06/01 04:04:49;;;;;;;30.62;11.30;;;;;;;4.16;72.23;99221.05;2145282;83;20997;-67
2021/06/01 04:07:50;;;;;;;28.77;10.80;;;;;;;4.42;72.42;99223.34;2145255;83;21072;-67
2021/06/01 04:10:51;;;;;;;27.60;12.00;;;;;;;4.79;71.90;99221.77;2145406;83;21050;-67
2021/06/01 04:13:51;;;;;;;30.32;12.63;;;;;;;5.11;71.93;99220.36;2145526;83;20988;-65
2021/06/01 04:16:51;;;;;;;34.95;14.83;;;;;;;5.43;71.42;99218.01;2145451;83;21021;-65
2021/06/01 04:19:52;;;;;;;36.73;16.73;;;;;;;5.78;71.34;99216.40;2145495;83;21060;-65
2021/06/01 04:22:53;;;;;;;33.75;15.50;;;;;;;6.22;71.18;99213.52;2145244;83;21056;-66
2021/06/01 04:25:53;;;;;;;34.53;16.32;;;;;;;6.71;71.16;99216.45;2145593;83;21000;-64
2021/06/01 04:28:54;;;;;;;33.08;15.23;;;;;;;7.20;71.19;99213.21;2146185;81;21586;-62
2021/06/01 04:31:54;;;;;;;35.95;15.88;;;;;;;7.67;70.41;99208.67;2150769;82;21491;-67
2021/06/01 04:34:55;;;;;;;37.90;16.75;;;;;;;8.14;70.18;99209.66;2150754;83;20964;-63
2021/06/01 04:37:55;;;;;;;36.00;15.65;;;;;;;8.58;69.40;99212.50;2150839;82;21055;-67
2021/06/01 04:40:55;;;;;;;35.73;15.25;;;;;;;8.89;69.31;99217.58;2150820;83;21045;-67
2021/06/01 04:43:56;;;;;;;39.05;15.10;;;;;;;9.19;68.76;99221.79;2150714;83;21012;-64
2021/06/01 04:46:57;;;;;;;34.88;15.32;;;;;;;9.31;68.58;99222.51;2150796;83;21044;-67
2021/06/01 04:49:58;;;;;;;35.55;16.02;;;;;;;9.56;68.51;99219.97;2150830;83;21040;-67
2021/06/01 04:52:58;;;;;;;35.58;15.30;;;;;;;9.63;68.33;99223.97;2150671;82;21109;-67
2021/06/01 04:55:59;;;;;;;37.30;14.98;;;;;;;9.67;68.00;99227.30;2150716;83;21009;-67
2021/06/01 04:58:59;;;;;;;33.00;14.73;;;;;;;9.70;67.66;99220.59;2150957;82;20985;-67
2021/06/01 05:01:59;;;;;;;33.30;14.28;;;;;;;9.96;68.37;99219.23;2150753;83;21020;-66
2021/06/01 05:08:38;;;;;;;31.90;13.28;;;;;;;10.72;67.23;99212.12;2150722;83;21139;-64
2021/06/01 05:11:38;;;;;;;32.73;14.53;;;;;;;11.08;66.31;99207.53;2151094;83;20973;-61
2021/06/01 05:14:38;;;;;;;31.25;14.53;;;;;;;11.19;66.06;99211.70;2151037;82;21523;-62
2021/06/01 05:17:40;;;;;;;34.03;13.93;;;;;;;11.35;65.80;99214.73;2151014;82;21554;-63
2021/06/01 05:20:41;;;;;;;33.95;13.30;;;;;;;11.73;66.01;99212.97;2150966;82;21000;-62
2021/06/01 05:23:41;;;;;;;29.63;13.60;;;;;;;12.17;65.04;99212.55;2150968;82;21040;-62
2021/06/01 05:26:42;;;;;;;31.95;14.13;;;;;;;12.41;63.98;99218.08;2150722;82;21007;-64
2021/06/01 05:29:50;;;;;;;32.17;13.15;;;;;;;12.63;63.76;99213.65;2150832;82;21040;-62
2021/06/01 05:33:10;;;;;;;31.48;13.28;;;;;;;12.95;62.68;99216.00;2130649;83;21519;-65
2021/06/01 05:35:52;;;;;;;27.25;11.85;;;;;;;13.31;62.69;99219.33;2130759;83;21088;-65
2021/06/01 05:38:49;;;;;;;27.75;11.38;;;;;;;13.70;60.40;99215.48;2130890;83;21024;-65
2021/06/01 05:41:49;;;;;;;26.35;11.53;;;;;;;13.79;59.41;99213.55;2150771;83;21626;-65
2021/06/01 05:44:50;;;;;;;26.93;11.33;;;;;;;14.11;61.23;99222.84;2150944;83;20997;-65
2021/06/01 05:47:51;;;;;;;27.22;11.33;;;;;;;14.57;60.94;99213.00;2150763;82;21542;-65
2021/06/01 05:50:52;;;;;;;27.58;11.43;;;;;;;15.06;58.95;99208.63;2150796;83;21111;-66
2021/06/01 05:53:52;;;;;;;28.57;10.28;;;;;;;15.32;58.01;99211.98;2150785;83;21020;-65
2021/06/01 05:56:52;;;;;;;28.12;9.90;;;;;;;15.70;57.42;99208.26;2150885;82;21003;-64
2021/06/01 05:59:53;;;;;;;23.42;8.80;;;;;;;15.96;56.87;99213.84;2150936;82;21024;-65
2021/06/01 06:02:53;;;;;;;24.37;9.25;;;;;;;16.20;54.67;99213.25;2150917;82;21095;-65
2021/06/01 06:05:54;;;;;;;22.35;7.65;;;;;;;16.33;54.30;99212.30;2150978;82;20979;-66
2021/06/01 06:08:54;;;;;;;26.42;9.85;;;;;;;16.55;52.34;99212.75;2150884;82;21520;-65
2021/06/01 06:11:55;;;;;;;26.30;9.45;;;;;;;16.75;52.86;99212.48;2150697;82;21092;-65
2021/06/01 06:14:55;;;;;;;26.93;9.30;;;;;;;17.00;52.90;99215.85;2150829;82;21051;-66
2021/06/01 06:17:56;;;;;;;27.10;9.70;;;;;;;17.32;52.05;99215.84;2150720;82;21055;-66
2021/06/01 06:20:56;;;;;;;24.87;8.60;;;;;;;17.48;51.70;99212.74;2150866;83;20996;-66
2021/06/01 06:23:57;;;;;;;25.90;8.40;;;;;;;17.66;51.18;99208.55;2150903;83;21036;-66
2021/06/01 06:26:57;;;;;;;24.18;8.70;;;;;;;17.93;51.91;99213.84;2150850;82;21570;-66
2021/06/01 06:29:59;;;;;;;22.87;6.53;;;;;;;18.26;51.29;99212.38;2149154;83;21559;-66
2021/06/01 06:32:59;;;;;;;21.37;6.85;;;;;;;18.37;50.00;99214.12;2145449;83;21161;-66
2021/06/01 06:36:00;;;;;;;23.18;7.00;;;;;;;18.29;49.31;99206.33;2145163;83;21088;-65
2021/06/01 06:39:01;;;;;;;22.98;5.95;;;;;;;18.48;50.96;99202.06;2145367;83;21140;-66
2021/06/01 06:42:01;;;;;;;21.12;5.62;;;;;;;18.62;50.08;99195.52;2145501;83;21076;-66
2021/06/01 06:45:02;;;;;;;18.07;5.37;;;;;;;18.80;49.85;99206.34;2139772;82;21177;-65
2021/06/01 06:51:12;;;;;;;18.35;5.58;;;;;;;18.21;47.76;99206.16;2128809;83;21023;-63
2021/06/01 06:54:07;;;;;;;18.87;5.60;;;;;;;17.98;48.27;99207.64;2129443;83;21039;-63
2021/06/01 06:57:08;;;;;;;16.00;4.53;;;;;;;17.90;47.74;99206.59;2145482;82;21529;-62
2021/06/01 07:00:08;;;;;;;16.77;5.08;;;;;;;17.89;45.22;99211.56;2145077;83;21596;-64
2021/06/01 07:03:09;;;;;;;12.63;4.12;;;;;;;17.79;47.67;99208.84;2145558;82;21572;-64
2021/06/01 07:06:09;;;;;;;14.63;4.55;;;;;;;17.67;45.99;99212.06;2145313;82;21051;-64
2021/06/01 07:09:10;;;;;;;15.78;4.53;;;;;;;17.58;46.01;99202.21;2145419;82;21055;-62
2021/06/01 07:12:12;;;;;;;17.07;4.70;;;;;;;17.53;46.19;99214.54;2144923;82;21063;-63
2021/06/01 07:15:13;;;;;;;15.43;4.67;;;;;;;17.52;47.10;99207.55;2145410;83;21094;-61
2021/06/01 07:18:14;;;;;;;16.02;4.72;;;;;;;17.64;47.18;99207.84;2176882;82;20969;-64
2021/06/01 07:21:15;;;;;;;19.82;5.20;;;;;;;17.74;45.33;99215.02;2182694;81;21001;-63
2021/06/01 07:24:15;;;;;;;19.30;5.80;;;;;;;17.57;45.33;99215.11;2182868;81;21053;-64
2021/06/01 07:27:16;;;;;;;15.83;4.55;;;;;;;17.50;46.45;99216.13;2182752;81;21539;-64
2021/06/01 07:30:18;;;;;;;20.35;4.67;;;;;;;17.64;46.46;99209.17;2184335;81;21571;-64
2021/06/01 07:33:19;;;;;;;20.12;4.10;;;;;;;17.82;45.34;99212.06;2187887;81;21089;-64
2021/06/01 07:36:20;;;;;;;14.23;4.40;;;;;;;17.96;43.78;99208.77;2188020;81;21038;-64
2021/06/01 07:39:21;;;;;;;16.40;4.30;;;;;;;18.29;43.68;99211.64;2187926;81;21077;-65
2021/06/01 07:42:21;;;;;;;17.85;4.55;;;;;;;18.64;43.87;99203.70;2187808;81;21017;-64
2021/06/01 07:45:23;;;;;;;18.23;4.08;;;;;;;18.84;42.68;99207.25;2176847;81;20998;-64
2021/06/01 07:48:24;;;;;;;13.32;4.05;;;;;;;18.76;43.08;99207.11;2168890;82;21153;-64
2021/06/01 07:54:27;;;;;;;8.95;2.62;;;;;;;18.63;39.22;99207.36;2150153;82;21134;-63
2021/06/01 07:57:28;;;;;;;9.65;2.87;;;;;;;18.62;40.42;99210.98;2168721;82;21061;-63
2021/06/01 08:00:29;;;;;;;13.03;3.10;;;;;;;18.73;39.84;99208.69;2168705;82;21149;-64
2021/06/01 08:03:29;;;;;;;13.88;3.50;;;;;;;18.82;40.08;99204.38;2168501;82;21045;-65
2021/06/01 08:06:35;;;;;;;13.78;3.55;;;;;;;19.38;40.02;99204.26;2168518;82;21054;-65
2021/06/01 08:09:32;;;;;;;9.75;3.60;;;;;;;20.09;40.76;99196.36;2150022;82;21537;-65
2021/06/01 08:12:34;;;;;;;10.53;3.45;;;;;;;20.98;38.74;99192.77;2168484;81;21038;-63
2021/06/01 08:15:34;;;;;;;11.43;3.40;;;;;;;21.27;37.04;99192.02;2168922;82;21065;-65
2021/06/01 08:18:40;;;;;;;9.57;2.70;;;;;;;21.09;36.21;99191.22;2169248;82;21564;-64
2021/06/01 08:24:40;;;;;;;12.63;3.20;;;;;;;21.09;35.60;99184.55;2149743;82;21652;-65
2021/06/01 08:27:41;;;;;;;9.70;2.72;;;;;;;21.62;37.02;99181.00;2168829;81;21632;-65
2021/06/01 08:30:42;;;;;;;11.85;3.00;;;;;;;21.77;37.18;99181.77;2174807;81;21190;-64
2021/06/01 08:33:43;;;;;;;9.63;3.00;;;;;;;21.33;33.10;99179.90;2185755;81;21539;-64
2021/06/01 08:36:43;;;;;;;7.27;2.63;;;;;;;20.63;33.72;99169.03;2185816;81;20985;-64
2021/06/01 08:39:44;;;;;;;8.70;3.00;;;;;;;20.54;34.66;99170.30;2185873;81;21524;-64
2021/06/01 08:42:44;;;;;;;10.50;3.00;;;;;;;20.31;33.94;99172.50;2185695;81;21508;-64
2021/06/01 08:45:45;;;;;;;13.08;3.25;;;;;;;20.16;34.85;99170.83;2185365;81;21551;-64
2021/06/01 08:48:45;;;;;;;9.93;3.20;;;;;;;20.46;36.35;99173.33;2185611;81;21097;-64
2021/06/01 08:51:46;;;;;;;12.43;3.20;;;;;;;21.08;37.21;99171.69;2185690;81;21034;-63
2021/06/01 08:54:46;;;;;;;10.97;2.97;;;;;;;21.52;34.66;99166.07;2185661;81;20989;-64
2021/06/01 08:57:47;;;;;;;7.67;2.83;;;;;;;21.33;33.79;99161.22;2185646;81;21017;-62
2021/06/01 09:00:47;;;;;;;6.50;2.65;;;;;;;21.07;32.20;99171.34;2185749;81;21072;-62
2021/06/01 09:03:51;;;;;;;12.43;3.08;;;;;;;20.82;35.12;99162.28;2185014;81;21678;-63
2021/06/01 09:07:00;;;;;;;9.00;2.83;;;;;;;21.06;35.83;99167.02;2158057;81;21037;-62
2021/06/01 09:10:00;;;;;;;7.22;2.60;;;;;;;21.43;36.07;99160.66;2144096;82;21102;-62
2021/06/01 09:13:06;;;;;;;10.98;2.83;;;;;;;21.89;34.38;99155.13;2140276;82;21018;-64
2021/06/01 09:22:02;;;;;;;9.03;2.90;;;;;;;22.83;29.56;99160.02;2140388;82;21085;-63
2021/06/01 09:25:03;;;;;;;11.40;3.00;;;;;;;23.13;31.95;99157.75;2165170;82;21027;-63
2021/06/01 09:28:03;;;;;;;12.00;3.00;;;;;;;23.57;31.63;99148.52;2165084;82;21074;-64
2021/06/01 09:31:04;;;;;;;11.30;2.67;;;;;;;24.02;28.22;99148.45;2166336;81;21126;-63
2021/06/01 09:34:06;;;;;;;10.47;2.80;;;;;;;23.64;29.14;99145.49;2167994;82;21061;-63
2021/06/01 09:37:07;;;;;;;10.43;2.62;;;;;;;23.31;29.94;99142.85;2167367;82;20998;-63
2021/06/01 09:40:08;;;;;;;9.60;2.83;;;;;;;22.83;29.03;99148.50;2167799;82;21089;-64
2021/06/01 09:43:08;;;;;;;11.87;3.07;;;;;;;22.63;29.93;99148.78;2168039;82;20990;-64
2021/06/01 09:46:09;;;;;;;11.87;2.60;;;;;;;22.38;29.43;99144.36;2167561;82;21014;-64
2021/06/01 09:49:11;;;;;;;12.70;2.95;;;;;;;21.91;31.31;99147.81;2148805;82;21054;-64
2021/06/01 09:52:13;;;;;;;9.47;2.93;;;;;;;21.15;29.76;99151.92;2168094;82;21023;-63
2021/06/01 09:55:14;;;;;;;13.55;2.90;;;;;;;20.71;31.89;99145.17;2167691;82;21006;-63
2021/06/01 09:58:16;;;;;;;8.63;2.73;;;;;;;20.16;32.12;99156.68;2167894;82;21098;-64
2021/06/01 10:01:16;;;;;;;12.23;2.98;;;;;;;19.92;32.48;99150.03;2166518;82;21066;-64
2021/06/01 10:04:17;;;;;;;9.57;2.77;;;;;;;19.97;33.90;99149.12;2167337;82;21541;-64
2021/06/01 10:07:17;;;;;;;11.60;3.22;;;;;;;20.02;33.14;99141.52;2167258;82;21544;-64
2021/06/01 10:10:18;;;;;;;10.98;3.02;;;;;;;19.67;32.67;99145.67;2167156;82;21536;-64
2021/06/01 10:13:18;;;;;;;9.20;3.00;;;;;;;19.44;34.55;99141.17;2167173;82;21026;-64
2021/06/01 10:16:19;;;;;;;11.30;3.12;;;;;;;19.43;32.87;99142.65;2167639;82;21572;-65
2021/06/01 10:19:19;;;;;;;11.85;2.80;;;;;;;19.45;34.45;99145.99;2167766;82;21029;-65
2021/06/01 10:22:20;;;;;;;9.03;2.72;;;;;;;19.49;33.31;99144.73;2167756;82;21053;-65
2021/06/01 10:25:20;;;;;;;9.30;2.95;;;;;;;19.56;34.13;99144.50;2168121;82;20995;-65
2021/06/01 10:31:23;;;;;;;10.63;2.70;;;;;;;20.00;33.16;99144.83;2140081;83;21571;-64
2021/06/01 10:34:24;;;;;;;6.08;2.60;;;;;;;20.19;33.49;99133.75;2146807;83;21009;-65
2021/06/01 10:50:01;;;;;;;8.28;2.92;;;;;;;19.92;33.28;99135.90;2168692;82;21528;-63
2021/06/01 10:52:36;;;;;;;11.85;3.00;;;;;;;20.06;33.37;99130.92;2168778;81;21108;-65
2021/06/01 10:55:36;;;;;;;14.00;3.00;;;;;;;20.28;33.49;99131.52;2146532;83;21009;-66
2021/06/01 10:58:39;;;;;;;11.28;3.27;;;;;;;20.54;33.52;99130.33;2146556;83;21041;-65
2021/06/01 11:04:41;;;;;;;10.65;3.00;;;;;;;21.09;33.01;99130.70;2168682;81;20989;-65
2021/06/01 11:07:44;;;;;;;10.07;3.07;;;;;;;21.23;33.73;99121.33;2146579;83;21021;-66
2021/06/01 11:10:44;;;;;;;10.03;3.10;;;;;;;21.33;33.64;99122.55;2168790;81;21049;-66
2021/06/01 11:13:44;;;;;;;9.20;3.13;;;;;;;21.42;32.57;99124.77;2146533;83;20989;-66
2021/06/01 11:16:45;;;;;;;9.95;2.90;;;;;;;21.51;31.96;99119.88;2146730;83;21101;-65
2021/06/01 11:19:46;;;;;;;5.90;2.50;;;;;;;21.73;32.42;99121.16;2146561;83;21064;-66
2021/06/01 11:34:53;;;;;;;7.47;2.52;;;;;;;23.39;30.77;99108.58;2153784;82;21030;-66
2021/06/01 11:41:03;;;;;;;9.43;2.70;;;;;;;24.72;28.82;99112.45;2153612;82;21029;-66
2021/06/01 11:43:58;;;;;;;9.00;2.47;;;;;;;24.33;27.62;99110.64;2153658;82;21006;-66
2021/06/01 11:47:15;;;;;;;13.23;3.00;;;;;;;24.09;26.79;99116.43;2180826;82;21041;-67
2021/06/01 11:53:04;;;;;;;7.00;2.75;;;;;;;24.49;28.56;99107.86;2153335;82;21083;-66
2021/06/01 11:56:04;;;;;;;10.70;2.60;;;;;;;24.57;26.75;99105.66;2180793;82;21018;-66
2021/06/01 12:05:16;;;;;;;7.83;2.62;;;;;;;25.19;29.02;99104.70;2153604;82;21050;-66
2021/06/01 12:11:22;;;;;;;11.28;2.60;;;;;;;25.64;28.70;99099.95;2153419;82;21026;-67
2021/06/01 12:17:08;;;;;;;10.30;2.90;;;;;;;26.08;28.19;99092.41;2153598;82;21066;-66
2021/06/01 12:17:21;;;;;;;6.78;2.42;;;;;;;26.06;27.80;99094.44;2153281;82;21109;-67
2021/06/01 12:20:21;;;;;;;7.65;2.55;;;;;;;25.94;27.06;99090.84;2153374;82;21074;-66
2021/06/01 12:23:22;;;;;;;9.73;2.60;;;;;;;25.54;26.12;99088.98;2180965;82;21006;-66
2021/06/01 12:26:25;;;;;;;12.97;3.13;;;;;;;25.28;27.36;99084.50;2180964;82;21516;-65
2021/06/01 12:35:46;;;;;;;5.63;2.40;;;;;;;23.82;27.27;99081.52;2180999;82;21105;-66
2021/06/01 13:21:07;;;;;;;10.43;3.10;;;;;;;21.47;30.67;99085.13;2153355;82;21026;-66
2021/06/01 13:39:17;;;;;;;8.93;2.80;;;;;;;21.15;31.04;99087.92;2153524;82;21141;-66
2021/06/01 13:48:42;;;;;;;14.23;3.20;;;;;;;21.34;31.53;99083.39;2153679;82;21080;-66
2021/06/01 13:57:42;;;;;;;9.60;2.80;;;;;;;21.43;32.41;99093.96;2153886;82;21053;-67
2021/06/01 14:28:25;;;;;;;10.00;3.00;;;;;;;20.59;31.39;99077.91;2153652;82;21018;-66
2021/06/01 14:37:18;;;;;;;17.77;3.62;;;;;;;20.96;32.86;99080.95;2153501;82;21687;-66
2021/06/01 14:40:34;;;;;;;11.00;3.45;;;;;;;20.90;32.93;99089.53;2153858;82;21060;-66
2021/06/01 15:31:49;;;;;;;10.60;3.00;;;;;;;20.66;35.06;99066.98;2152872;82;21529;-66
2021/06/01 15:50:09;;;;;;;11.28;2.98;;;;;;;19.82;37.95;99076.05;2147339;82;21030;-66
2021/06/01 15:53:28;;;;;;;13.25;3.10;;;;;;;19.94;37.35;99070.03;2147146;82;21029;-66
2021/06/01 16:14:22;;;;;;;10.82;3.30;;;;;;;21.88;34.49;99059.17;2147290;82;21315;-64
2021/06/01 16:23:27;;;;;;;12.47;3.40;;;;;;;23.39;32.18;99060.41;2146992;82;21201;-66
2021/06/01 16:32:44;;;;;;;10.55;3.10;;;;;;;24.14;31.21;99059.15;2145578;82;21085;-65
2021/06/01 17:03:06;;;;;;;10.08;2.87;;;;;;;24.32;29.49;99065.59;2148204;82;21037;-65
2021/06/01 17:06:00;;;;;;;13.45;3.40;;;;;;;25.06;29.45;99061.04;2149007;82;21078;-65
2021/06/01 17:11:57;;;;;;;9.93;3.20;;;;;;;24.26;29.22;99062.78;2167958;82;21105;-65
2021/06/01 17:14:57;;;;;;;11.07;3.30;;;;;;;23.93;28.84;99066.95;2168084;82;21033;-65
2021/06/01 17:18:06;;;;;;;10.93;3.27;;;;;;;23.65;29.27;99069.53;2167891;82;21920;-65
2021/06/01 17:36:11;;;;;;;25.08;8.38;;;;;;;20.89;32.80;99088.71;2148939;82;21030;-65
2021/06/01 17:39:12;;;;;;;22.30;5.80;;;;;;;20.53;34.09;99083.35;2167939;82;21030;-65
2021/06/01 17:42:12;;;;;;;17.20;4.47;;;;;;;20.20;34.76;99079.48;2168047;82;21003;-64
2021/06/01 17:45:13;;;;;;;18.10;4.80;;;;;;;19.85;34.75;99081.07;2167909;82;21054;-65
2021/06/01 17:48:27;;;;;;;21.10;5.08;;;;;;;19.49;35.98;99084.38;2167960;82;21605;-65
2021/06/01 17:54:18;;;;;;;24.72;6.17;;;;;;;19.09;37.46;99093.41;2148682;82;21014;-66
2021/06/01 17:57:18;;;;;;;20.77;6.43;;;;;;;19.67;37.63;99088.97;2167874;82;21058;-65
2021/06/01 18:00:21;;;;;;;29.73;10.10;;;;;;;20.00;37.93;99089.42;2167746;82;21177;-65
2021/06/01 18:03:23;;;;;;;24.05;7.92;;;;;;;19.80;37.44;99097.98;2167639;82;21080;-65
2021/06/01 18:06:23;;;;;;;21.02;6.90;;;;;;;19.27;38.46;99097.53;2148971;82;21046;-65
2021/06/01 19:22:57;;;;;;;;;;;;;;;15.15;48.74;99173.59;2171312;81;21020;-64
2021/06/01 19:25:25;;;;;;;27.58;8.93;;;;;;;15.06;49.47;99175.61;2120530;83;20165;-65
2021/06/01 19:52:42;;;;;;;;;;;;;;;14.55;51.12;99193.77;2155938;82;21034;-65
2021/06/01 19:55:44;;;;;;;23.67;6.40;;;;;;;14.50;51.69;99196.75;2180518;81;20145;-64
2021/06/01 19:58:47;;;;;;;20.97;6.00;;;;;;;14.44;51.27;99195.88;2180919;82;21040;-64
2021/06/01 20:01:47;;;;;;;24.70;6.17;;;;;;;14.43;51.57;99199.45;2153441;82;21073;-64
2021/06/01 20:04:48;;;;;;;21.75;6.47;;;;;;;14.40;51.89;99205.44;2180752;82;21153;-64
2021/06/01 20:07:49;;;;;;;20.10;6.23;;;;;;;14.38;51.67;99202.91;2180929;82;21033;-64
2021/06/01 20:10:54;;;;;;;20.90;6.33;;;;;;;14.36;51.82;99206.13;2180770;82;21038;-64
2021/06/01 20:13:52;;;;;;;;;;;;;;;14.32;52.12;99204.19;2156159;82;21050;-64
2021/06/01 20:16:52;;;;;;;20.60;6.37;;;;;;;14.30;52.62;99207.39;2180737;82;20157;-62
2021/06/01 20:19:53;;;;;;;19.77;5.75;;;;;;;14.26;52.30;99210.36;2180783;82;21053;-64
2021/06/01 20:22:54;;;;;;;21.65;6.67;;;;;;;14.20;52.69;99201.08;2180786;82;20977;-63
2021/06/01 20:25:54;;;;;;;20.43;7.12;;;;;;;14.17;52.53;99214.48;2180753;82;20994;-64
2021/06/01 20:28:59;;;;;;;21.12;7.08;;;;;;;14.12;53.14;99208.68;2180808;82;20958;-63
2021/06/01 20:31:59;;;;;;;;;;;;;;;14.07;53.16;99209.01;2155900;82;21630;-63
2021/06/01 20:35:00;;;;;;;20.62;6.60;;;;;;;14.04;53.74;99208.73;2149081;82;20480;-63
2021/06/01 20:38:00;;;;;;;21.93;6.90;;;;;;;13.99;53.35;99212.64;2167625;82;21050;-63
2021/06/01 20:41:02;;;;;;;20.55;6.60;;;;;;;13.94;53.77;99217.41;2167904;82;21029;-62
2021/06/01 20:44:03;;;;;;;22.15;7.22;;;;;;;13.91;53.93;99217.13;2168011;82;21017;-65
2021/06/01 20:47:04;;;;;;;21.48;7.42;;;;;;;13.89;54.19;99213.73;2167852;82;21548;-63
2021/06/01 20:50:04;;;;;;;23.47;7.53;;;;;;;13.85;54.31;99217.08;2167869;82;21585;-64
2021/06/01 20:53:05;;;;;;;23.10;7.75;;;;;;;13.81;54.23;99216.91;2167730;82;21526;-63
2021/06/01 20:56:06;;;;;;;21.65;7.58;;;;;;;13.80;54.49;99224.93;2167514;82;21034;-65
2021/06/01 20:59:07;;;;;;;22.07;7.37;;;;;;;13.77;54.35;99222.02;2167801;82;21113;-64